sensor_id;sensor_type;location;lat;lon;timestamp;pressure;altitude;pressure_sealevel;temperature;humidity
32237;BME280;18726;44.732;10.550;2023-07-20T00:02:50;100396.75;;;27.18;93.07
32237;BME280;18726;44.732;10.550;2023-07-20T00:05:54;100402.50;;;26.69;100.00
32237;BME280;18726;44.732;10.550;2023-07-20T00:08:57;100405.75;;;26.95;99.93
32237;BME280;18726;44.732;10.550;2023-07-20T00:12:02;100399.84;;;27.20;97.34
32237;BME280;18726;44.732;10.550;2023-07-20T00:15:06;100389.63;;;27.17;94.76
32237;BME280;18726;44.732;10.550;2023-07-20T00:18:09;100392.56;;;27.32;95.08
32237;BME280;18726;44.732;10.550;2023-07-20T00:21:13;100384.28;;;27.46;94.15
32237;BME280;18726;44.732;10.550;2023-07-20T00:24:17;100383.94;;;27.72;93.80
32237;BME280;18726;44.732;10.550;2023-07-20T00:27:21;100391.41;;;27.99;91.39
32237;BME280;18726;44.732;10.550;2023-07-20T00:30:24;100389.28;;;27.42;93.22
32237;BME280;18726;44.732;10.550;2023-07-20T00:33:28;100395.56;;;27.10;97.20
32237;BME280;18726;44.732;10.550;2023-07-20T00:36:32;100408.72;;;26.82;100.00
32237;BME280;18726;44.732;10.550;2023-07-20T00:39:39;100417.81;;;26.91;100.00
32237;BME280;18726;44.732;10.550;2023-07-20T00:42:43;100417.78;;;27.46;97.65
32237;BME280;18726;44.732;10.550;2023-07-20T00:45:47;100424.53;;;27.73;96.79
32237;BME280;18726;44.732;10.550;2023-07-20T00:48:51;100441.53;;;27.93;94.68
32237;BME280;18726;44.732;10.550;2023-07-20T00:51:55;100450.94;;;28.05;94.43
32237;BME280;18726;44.732;10.550;2023-07-20T00:55:00;100461.34;;;28.04;93.73
32237;BME280;18726;44.732;10.550;2023-07-20T00:58:04;100448.28;;;28.10;96.16
32237;BME280;18726;44.732;10.550;2023-07-20T01:01:07;100466.13;;;28.13;97.69
32237;BME280;18726;44.732;10.550;2023-07-20T01:04:11;100458.50;;;28.13;95.51
32237;BME280;18726;44.732;10.550;2023-07-20T01:07:23;100446.97;;;27.87;100.00
32237;BME280;18726;44.732;10.550;2023-07-20T01:10:56;100439.97;;;26.09;100.00
32237;BME280;18726;44.732;10.550;2023-07-20T01:14:03;100425.25;;;26.95;100.00
32237;BME280;18726;44.732;10.550;2023-07-20T01:17:07;100422.94;;;27.20;100.00
32237;BME280;18726;44.732;10.550;2023-07-20T01:20:16;100419.88;;;27.79;100.00
32237;BME280;18726;44.732;10.550;2023-07-20T01:23:50;100417.47;;;27.96;96.15
32237;BME280;18726;44.732;10.550;2023-07-20T01:33:30;100440.09;;;27.65;99.64
32237;BME280;18726;44.732;10.550;2023-07-20T01:36:37;100453.13;;;27.68;98.65
32237;BME280;18726;44.732;10.550;2023-07-20T01:39:41;100441.03;;;27.62;96.78
32237;BME280;18726;44.732;10.550;2023-07-20T01:42:48;100445.94;;;27.76;96.93
32237;BME280;18726;44.732;10.550;2023-07-20T01:45:52;100444.06;;;27.73;99.51
32237;BME280;18726;44.732;10.550;2023-07-20T01:48:55;100444.13;;;27.45;100.00
32237;BME280;18726;44.732;10.550;2023-07-20T01:51:59;100438.94;;;27.02;100.00
32237;BME280;18726;44.732;10.550;2023-07-20T01:55:03;100451.16;;;26.95;100.00
32237;BME280;18726;44.732;10.550;2023-07-20T01:58:08;100458.59;;;27.07;100.00
32237;BME280;18726;44.732;10.550;2023-07-20T02:01:12;100453.47;;;26.78;100.00
32237;BME280;18726;44.732;10.550;2023-07-20T02:04:16;100455.47;;;26.87;100.00
32237;BME280;18726;44.732;10.550;2023-07-20T02:07:19;100455.94;;;26.95;100.00
32237;BME280;18726;44.732;10.550;2023-07-20T02:10:23;100464.63;;;27.15;100.00
32237;BME280;18726;44.732;10.550;2023-07-20T02:13:27;100475.50;;;27.04;100.00
32237;BME280;18726;44.732;10.550;2023-07-20T02:16:30;100479.81;;;27.32;100.00
32237;BME280;18726;44.732;10.550;2023-07-20T02:19:34;100473.63;;;27.37;100.00
32237;BME280;18726;44.732;10.550;2023-07-20T02:22:38;100472.38;;;27.38;100.00
32237;BME280;18726;44.732;10.550;2023-07-20T02:25:42;100468.53;;;27.08;100.00
32237;BME280;18726;44.732;10.550;2023-07-20T02:28:46;100458.41;;;26.74;100.00
32237;BME280;18726;44.732;10.550;2023-07-20T02:31:50;100447.25;;;26.74;100.00
32237;BME280;18726;44.732;10.550;2023-07-20T02:34:53;100455.00;;;26.70;100.00
32237;BME280;18726;44.732;10.550;2023-07-20T02:37:57;100458.69;;;26.67;100.00
32237;BME280;18726;44.732;10.550;2023-07-20T02:41:01;100465.03;;;26.58;100.00
32237;BME280;18726;44.732;10.550;2023-07-20T02:44:06;100463.19;;;26.55;100.00
32237;BME280;18726;44.732;10.550;2023-07-20T02:47:10;100467.34;;;26.51;100.00
32237;BME280;18726;44.732;10.550;2023-07-20T02:50:13;100463.34;;;26.52;100.00
32237;BME280;18726;44.732;10.550;2023-07-20T02:53:18;100448.03;;;26.16;100.00
32237;BME280;18726;44.732;10.550;2023-07-20T02:56:22;100446.34;;;26.19;100.00
32237;BME280;18726;44.732;10.550;2023-07-20T02:59:26;100450.94;;;26.44;100.00
32237;BME280;18726;44.732;10.550;2023-07-20T03:02:30;100447.84;;;26.60;100.00
32237;BME280;18726;44.732;10.550;2023-07-20T03:05:34;100452.56;;;27.00;100.00
32237;BME280;18726;44.732;10.550;2023-07-20T03:08:37;100459.03;;;27.24;100.00
32237;BME280;18726;44.732;10.550;2023-07-20T03:11:40;100464.00;;;27.29;100.00
32237;BME280;18726;44.732;10.550;2023-07-20T03:14:44;100450.97;;;27.35;100.00
32237;BME280;18726;44.732;10.550;2023-07-20T03:17:49;100447.91;;;26.97;100.00
32237;BME280;18726;44.732;10.550;2023-07-20T03:20:54;100454.53;;;26.72;100.00
32237;BME280;18726;44.732;10.550;2023-07-20T03:23:58;100453.44;;;26.51;100.00
32237;BME280;18726;44.732;10.550;2023-07-20T03:27:01;100448.78;;;26.57;100.00
32237;BME280;18726;44.732;10.550;2023-07-20T03:30:06;100454.38;;;26.66;100.00
32237;BME280;18726;44.732;10.550;2023-07-20T03:33:10;100449.72;;;26.63;100.00
32237;BME280;18726;44.732;10.550;2023-07-20T03:36:15;100440.69;;;26.41;100.00
32237;BME280;18726;44.732;10.550;2023-07-20T03:39:18;100440.06;;;26.37;100.00
32237;BME280;18726;44.732;10.550;2023-07-20T03:42:23;100433.13;;;26.41;100.00
32237;BME280;18726;44.732;10.550;2023-07-20T03:45:26;100435.13;;;26.41;100.00
32237;BME280;18726;44.732;10.550;2023-07-20T03:48:30;100433.91;;;26.51;100.00
32237;BME280;18726;44.732;10.550;2023-07-20T03:51:34;100433.91;;;26.51;100.00
32237;BME280;18726;44.732;10.550;2023-07-20T03:54:38;100442.59;;;26.62;100.00
32237;BME280;18726;44.732;10.550;2023-07-20T03:57:42;100440.44;;;26.66;100.00
32237;BME280;18726;44.732;10.550;2023-07-20T04:00:47;100443.84;;;26.79;100.00
32237;BME280;18726;44.732;10.550;2023-07-20T04:03:51;100436.72;;;27.15;100.00
32237;BME280;18726;44.732;10.550;2023-07-20T04:06:55;100436.22;;;27.44;98.37
32237;BME280;18726;44.732;10.550;2023-07-20T04:09:58;100442.34;;;27.84;96.47
32237;BME280;18726;44.732;10.550;2023-07-20T04:13:03;100451.97;;;28.16;95.65
32237;BME280;18726;44.732;10.550;2023-07-20T04:16:06;100439.44;;;28.45;94.40
32237;BME280;18726;44.732;10.550;2023-07-20T04:19:10;100442.63;;;28.76;89.45
32237;BME280;18726;44.732;10.550;2023-07-20T04:22:14;100447.34;;;29.09;86.20
32237;BME280;18726;44.732;10.550;2023-07-20T04:25:19;100444.03;;;29.49;84.35
32237;BME280;18726;44.732;10.550;2023-07-20T04:28:23;100453.34;;;29.90;82.58
32237;BME280;18726;44.732;10.550;2023-07-20T04:31:27;100452.50;;;30.34;79.48
32237;BME280;18726;44.732;10.550;2023-07-20T04:34:31;100458.09;;;30.89;76.45
32237;BME280;18726;44.732;10.550;2023-07-20T04:37:35;100461.03;;;31.52;73.58
32237;BME280;18726;44.732;10.550;2023-07-20T04:40:39;100462.06;;;32.17;71.48
32237;BME280;18726;44.732;10.550;2023-07-20T04:43:44;100460.06;;;32.72;68.96
32237;BME280;18726;44.732;10.550;2023-07-20T04:46:49;100449.75;;;33.17;66.69
32237;BME280;18726;44.732;10.550;2023-07-20T04:49:53;100451.63;;;33.65;65.43
32237;BME280;18726;44.732;10.550;2023-07-20T04:52:57;100454.41;;;34.32;63.58
32237;BME280;18726;44.732;10.550;2023-07-20T04:56:00;100459.84;;;34.88;62.07
32237;BME280;18726;44.732;10.550;2023-07-20T04:59:05;100454.19;;;35.34;61.06
32237;BME280;18726;44.732;10.550;2023-07-20T05:02:09;100444.41;;;36.01;59.34
32237;BME280;18726;44.732;10.550;2023-07-20T05:05:12;100455.63;;;36.55;56.55
32237;BME280;18726;44.732;10.550;2023-07-20T05:08:16;100459.44;;;37.01;54.44
32237;BME280;18726;44.732;10.550;2023-07-20T05:11:20;100462.69;;;35.94;57.72
32237;BME280;18726;44.732;10.550;2023-07-20T05:14:23;100467.94;;;36.82;56.32
32237;BME280;18726;44.732;10.550;2023-07-20T05:17:29;100460.88;;;37.45;53.22
32237;BME280;18726;44.732;10.550;2023-07-20T05:20:32;100461.38;;;38.21;50.63
32237;BME280;18726;44.732;10.550;2023-07-20T05:23:37;100467.53;;;37.10;52.86
32237;BME280;18726;44.732;10.550;2023-07-20T05:26:41;100467.00;;;37.62;52.47
32237;BME280;18726;44.732;10.550;2023-07-20T05:29:45;100465.28;;;38.70;49.55
32237;BME280;18726;44.732;10.550;2023-07-20T05:32:49;100467.44;;;38.91;48.82
32237;BME280;18726;44.732;10.550;2023-07-20T05:35:55;100472.28;;;39.92;46.13
32237;BME280;18726;44.732;10.550;2023-07-20T05:38:59;100463.13;;;38.63;47.22
32237;BME280;18726;44.732;10.550;2023-07-20T05:42:02;100474.22;;;38.88;46.41
32237;BME280;18726;44.732;10.550;2023-07-20T05:45:06;100485.69;;;39.84;44.48
32237;BME280;18726;44.732;10.550;2023-07-20T05:48:10;100478.47;;;39.62;43.69
32237;BME280;18726;44.732;10.550;2023-07-20T05:51:14;100473.00;;;37.59;48.87
32237;BME280;18726;44.732;10.550;2023-07-20T05:54:18;100477.97;;;38.16;49.46
32237;BME280;18726;44.732;10.550;2023-07-20T05:57:22;100484.44;;;39.51;44.49
32237;BME280;18726;44.732;10.550;2023-07-20T06:00:26;100493.25;;;40.02;42.87
32237;BME280;18726;44.732;10.550;2023-07-20T06:03:30;100491.25;;;40.39;42.74
32237;BME280;18726;44.732;10.550;2023-07-20T06:06:33;100497.19;;;40.85;41.56
32237;BME280;18726;44.732;10.550;2023-07-20T06:09:37;100494.97;;;40.62;39.45
32237;BME280;18726;44.732;10.550;2023-07-20T06:12:41;100491.22;;;43.11;36.13
32237;BME280;18726;44.732;10.550;2023-07-20T06:15:44;100504.63;;;44.16;34.73
32237;BME280;18726;44.732;10.550;2023-07-20T06:18:48;100498.31;;;43.67;33.84
32237;BME280;18726;44.732;10.550;2023-07-20T06:21:52;100501.91;;;43.43;35.37
32237;BME280;18726;44.732;10.550;2023-07-20T06:24:56;100503.47;;;43.36;33.17
32237;BME280;18726;44.732;10.550;2023-07-20T06:28:00;100508.91;;;44.24;32.38
32237;BME280;18726;44.732;10.550;2023-07-20T06:31:04;100512.34;;;45.36;32.85
32237;BME280;18726;44.732;10.550;2023-07-20T06:34:07;100519.03;;;46.89;30.67
32237;BME280;18726;44.732;10.550;2023-07-20T06:37:11;100513.88;;;46.20;30.97
32237;BME280;18726;44.732;10.550;2023-07-20T06:40:14;100512.38;;;46.19;29.64
32237;BME280;18726;44.732;10.550;2023-07-20T06:43:17;100516.03;;;47.56;29.60
32237;BME280;18726;44.732;10.550;2023-07-20T06:46:21;100518.31;;;45.84;29.00
32237;BME280;18726;44.732;10.550;2023-07-20T06:49:26;100523.09;;;45.62;30.98
32237;BME280;18726;44.732;10.550;2023-07-20T06:52:30;100515.91;;;47.76;29.42
32237;BME280;18726;44.732;10.550;2023-07-20T06:55:33;100519.50;;;48.38;26.95
32237;BME280;18726;44.732;10.550;2023-07-20T06:58:36;100520.72;;;49.81;25.94
32237;BME280;18726;44.732;10.550;2023-07-20T07:01:40;100527.88;;;48.88;25.30
32237;BME280;18726;44.732;10.550;2023-07-20T07:04:43;100525.72;;;49.22;26.67
32237;BME280;18726;44.732;10.550;2023-07-20T07:07:47;100529.75;;;49.40;25.09
32237;BME280;18726;44.732;10.550;2023-07-20T07:10:52;100539.63;;;50.79;25.28
32237;BME280;18726;44.732;10.550;2023-07-20T07:13:56;100531.03;;;51.59;23.45
32237;BME280;18726;44.732;10.550;2023-07-20T07:16:59;100524.31;;;51.82;23.70
32237;BME280;18726;44.732;10.550;2023-07-20T07:20:03;100517.47;;;49.75;26.19
32237;BME280;18726;44.732;10.550;2023-07-20T07:23:07;100513.75;;;47.55;27.25
32237;BME280;18726;44.732;10.550;2023-07-20T07:26:11;100502.03;;;45.23;28.84
32237;BME280;18726;44.732;10.550;2023-07-20T07:29:15;100516.34;;;46.71;27.18
32237;BME280;18726;44.732;10.550;2023-07-20T07:32:18;100517.53;;;47.88;26.73
32237;BME280;18726;44.732;10.550;2023-07-20T07:35:22;100514.84;;;48.87;26.04
32237;BME280;18726;44.732;10.550;2023-07-20T07:38:25;100518.38;;;48.64;26.08
32237;BME280;18726;44.732;10.550;2023-07-20T07:41:28;100523.19;;;45.91;29.04
32237;BME280;18726;44.732;10.550;2023-07-20T07:44:32;100513.72;;;46.27;28.76
32237;BME280;18726;44.732;10.550;2023-07-20T07:47:35;100519.84;;;48.87;25.92
32237;BME280;18726;44.732;10.550;2023-07-20T07:50:39;100516.63;;;46.95;28.76
32237;BME280;18726;44.732;10.550;2023-07-20T07:53:46;100504.06;;;45.40;29.70
32237;BME280;18726;44.732;10.550;2023-07-20T07:56:50;100500.69;;;45.07;30.73
32237;BME280;18726;44.732;10.550;2023-07-20T07:59:54;100502.28;;;45.81;30.35
32237;BME280;18726;44.732;10.550;2023-07-20T08:02:58;100504.94;;;45.33;30.47
32237;BME280;18726;44.732;10.550;2023-07-20T08:06:02;100499.75;;;44.60;31.59
32237;BME280;18726;44.732;10.550;2023-07-20T08:09:08;100497.09;;;43.21;32.30
32237;BME280;18726;44.732;10.550;2023-07-20T08:12:12;100503.59;;;44.21;31.39
32237;BME280;18726;44.732;10.550;2023-07-20T08:15:16;100511.63;;;44.57;31.84
32237;BME280;18726;44.732;10.550;2023-07-20T08:18:20;100506.00;;;43.32;32.64
32237;BME280;18726;44.732;10.550;2023-07-20T08:21:24;100505.16;;;43.72;33.42
32237;BME280;18726;44.732;10.550;2023-07-20T08:24:27;100509.28;;;44.46;32.89
32237;BME280;18726;44.732;10.550;2023-07-20T08:27:30;100520.28;;;45.01;31.83
32237;BME280;18726;44.732;10.550;2023-07-20T08:30:48;100512.06;;;44.53;33.91
32237;BME280;18726;44.732;10.550;2023-07-20T08:33:52;100516.75;;;44.24;33.86
32237;BME280;18726;44.732;10.550;2023-07-20T08:36:58;100517.72;;;44.01;33.50
32237;BME280;18726;44.732;10.550;2023-07-20T08:40:02;100509.59;;;44.15;32.48
32237;BME280;18726;44.732;10.550;2023-07-20T08:43:08;100503.66;;;45.90;32.46
32237;BME280;18726;44.732;10.550;2023-07-20T08:46:13;100511.75;;;47.07;30.69
32237;BME280;18726;44.732;10.550;2023-07-20T08:49:18;100506.47;;;48.16;29.71
32237;BME280;18726;44.732;10.550;2023-07-20T08:52:22;100513.16;;;48.09;28.83
32237;BME280;18726;44.732;10.550;2023-07-20T08:55:26;100505.19;;;48.61;28.42
32237;BME280;18726;44.732;10.550;2023-07-20T08:58:30;100495.44;;;46.81;29.41
32237;BME280;18726;44.732;10.550;2023-07-20T09:01:36;100498.81;;;45.92;30.75
32237;BME280;18726;44.732;10.550;2023-07-20T09:04:42;100501.03;;;46.79;30.54
32237;BME280;18726;44.732;10.550;2023-07-20T09:07:47;100491.50;;;46.86;30.70
32237;BME280;18726;44.732;10.550;2023-07-20T09:10:50;100489.53;;;47.38;31.19
32237;BME280;18726;44.732;10.550;2023-07-20T09:14:08;100493.28;;;47.91;29.90
32237;BME280;18726;44.732;10.550;2023-07-20T09:17:15;100484.06;;;48.47;30.56
32237;BME280;18726;44.732;10.550;2023-07-20T09:20:20;100475.38;;;44.52;31.87
32237;BME280;18726;44.732;10.550;2023-07-20T09:23:34;100484.03;;;45.50;31.48
32237;BME280;18726;44.732;10.550;2023-07-20T09:26:42;100491.53;;;46.47;32.10
32237;BME280;18726;44.732;10.550;2023-07-20T09:29:50;100487.75;;;46.45;31.87
32237;BME280;18726;44.732;10.550;2023-07-20T09:32:54;100489.97;;;47.04;31.52
32237;BME280;18726;44.732;10.550;2023-07-20T09:36:02;100493.84;;;44.58;31.87
32237;BME280;18726;44.732;10.550;2023-07-20T09:39:06;100493.00;;;44.14;33.77
32237;BME280;18726;44.732;10.550;2023-07-20T09:42:11;100483.31;;;41.47;36.63
32237;BME280;18726;44.732;10.550;2023-07-20T09:45:15;100478.41;;;42.01;37.50
32237;BME280;18726;44.732;10.550;2023-07-20T09:48:24;100483.94;;;42.77;36.93
32237;BME280;18726;44.732;10.550;2023-07-20T09:51:28;100486.69;;;44.15;34.23
32237;BME280;18726;44.732;10.550;2023-07-20T09:54:32;100478.22;;;45.30;33.50
32237;BME280;18726;44.732;10.550;2023-07-20T09:57:36;100470.03;;;43.14;34.05
32237;BME280;18726;44.732;10.550;2023-07-20T10:00:41;100467.28;;;42.99;35.92
32237;BME280;18726;44.732;10.550;2023-07-20T10:03:58;100472.09;;;44.03;35.78
32237;BME280;18726;44.732;10.550;2023-07-20T10:07:05;100464.28;;;45.00;34.01
32237;BME280;18726;44.732;10.550;2023-07-20T10:10:14;100465.66;;;45.62;32.48
32237;BME280;18726;44.732;10.550;2023-07-20T10:13:25;100462.16;;;46.29;33.02
32237;BME280;18726;44.732;10.550;2023-07-20T10:16:33;100458.38;;;44.98;33.23
32237;BME280;18726;44.732;10.550;2023-07-20T10:19:42;100466.53;;;44.23;35.34
32237;BME280;18726;44.732;10.550;2023-07-20T10:22:49;100457.59;;;44.70;33.53
32237;BME280;18726;44.732;10.550;2023-07-20T10:25:55;100464.03;;;44.44;32.82
32237;BME280;18726;44.732;10.550;2023-07-20T10:29:00;100451.78;;;43.67;33.94
32237;BME280;18726;44.732;10.550;2023-07-20T10:32:05;100455.88;;;43.98;34.32
32237;BME280;18726;44.732;10.550;2023-07-20T10:35:14;100446.94;;;44.81;35.04
32237;BME280;18726;44.732;10.550;2023-07-20T10:38:18;100453.75;;;45.02;34.28
32237;BME280;18726;44.732;10.550;2023-07-20T10:41:28;100444.72;;;45.16;33.01
32237;BME280;18726;44.732;10.550;2023-07-20T10:44:32;100440.88;;;43.90;33.08
32237;BME280;18726;44.732;10.550;2023-07-20T10:47:45;100442.59;;;44.28;33.99
32237;BME280;18726;44.732;10.550;2023-07-20T10:51:12;100436.69;;;43.41;36.10
32237;BME280;18726;44.732;10.550;2023-07-20T10:57:29;100435.41;;;44.71;35.13
32237;BME280;18726;44.732;10.550;2023-07-20T11:00:34;100437.41;;;45.05;33.69
32237;BME280;18726;44.732;10.550;2023-07-20T11:03:39;100431.06;;;44.53;33.37
32237;BME280;18726;44.732;10.550;2023-07-20T11:06:46;100440.00;;;45.01;33.96
32237;BME280;18726;44.732;10.550;2023-07-20T11:09:49;100430.59;;;45.64;34.17
32237;BME280;18726;44.732;10.550;2023-07-20T11:13:24;100429.25;;;45.65;34.52
32237;BME280;18726;44.732;10.550;2023-07-20T11:16:38;100423.84;;;45.88;34.01
32237;BME280;18726;44.732;10.550;2023-07-20T11:19:43;100425.84;;;46.24;33.04
32237;BME280;18726;44.732;10.550;2023-07-20T11:22:46;100412.97;;;44.16;34.40
32237;BME280;18726;44.732;10.550;2023-07-20T11:25:51;100403.69;;;43.23;37.16
32237;BME280;18726;44.732;10.550;2023-07-20T11:28:55;100402.59;;;44.03;35.52
32237;BME280;18726;44.732;10.550;2023-07-20T11:32:00;100402.97;;;44.68;35.03
32237;BME280;18726;44.732;10.550;2023-07-20T11:35:05;100398.16;;;44.98;34.16
32237;BME280;18726;44.732;10.550;2023-07-20T11:38:09;100390.94;;;45.06;33.74
32237;BME280;18726;44.732;10.550;2023-07-20T11:41:13;100395.44;;;44.46;34.22
32237;BME280;18726;44.732;10.550;2023-07-20T11:44:17;100392.75;;;40.95;36.87
32237;BME280;18726;44.732;10.550;2023-07-20T11:47:21;100381.97;;;40.57;36.55
32237;BME280;18726;44.732;10.550;2023-07-20T11:50:25;100384.47;;;40.25;38.86
32237;BME280;18726;44.732;10.550;2023-07-20T11:53:28;100379.97;;;39.31;38.77
32237;BME280;18726;44.732;10.550;2023-07-20T11:56:31;100378.22;;;38.73;39.42
32237;BME280;18726;44.732;10.550;2023-07-20T11:59:36;100371.97;;;38.88;39.59
32237;BME280;18726;44.732;10.550;2023-07-20T12:02:39;100375.25;;;39.12;39.39
32237;BME280;18726;44.732;10.550;2023-07-20T12:05:43;100360.09;;;40.08;38.60
32237;BME280;18726;44.732;10.550;2023-07-20T12:08:47;100366.50;;;40.01;38.23
32237;BME280;18726;44.732;10.550;2023-07-20T12:11:51;100359.47;;;39.74;37.51
32237;BME280;18726;44.732;10.550;2023-07-20T12:14:54;100345.50;;;39.34;38.47
32237;BME280;18726;44.732;10.550;2023-07-20T12:17:59;100347.69;;;39.98;40.18
32237;BME280;18726;44.732;10.550;2023-07-20T12:21:03;100344.94;;;39.57;40.28
32237;BME280;18726;44.732;10.550;2023-07-20T12:24:10;100331.69;;;38.76;42.08
32237;BME280;18726;44.732;10.550;2023-07-20T12:27:14;100337.56;;;39.54;40.24
32237;BME280;18726;44.732;10.550;2023-07-20T12:30:19;100341.75;;;40.68;40.01
32237;BME280;18726;44.732;10.550;2023-07-20T12:33:23;100334.28;;;40.14;38.33
32237;BME280;18726;44.732;10.550;2023-07-20T12:36:27;100326.22;;;39.40;40.24
32237;BME280;18726;44.732;10.550;2023-07-20T12:39:30;100323.25;;;37.31;45.82
32237;BME280;18726;44.732;10.550;2023-07-20T12:42:34;100320.84;;;38.88;43.93
32237;BME280;18726;44.732;10.550;2023-07-20T12:45:38;100327.69;;;39.83;41.66
32237;BME280;18726;44.732;10.550;2023-07-20T12:48:41;100326.09;;;40.46;41.80
32237;BME280;18726;44.732;10.550;2023-07-20T12:51:45;100317.91;;;39.42;38.85
32237;BME280;18726;44.732;10.550;2023-07-20T12:54:49;100316.13;;;38.56;41.76
32237;BME280;18726;44.732;10.550;2023-07-20T12:57:52;100303.34;;;38.63;42.90
32237;BME280;18726;44.732;10.550;2023-07-20T13:00:56;100303.59;;;37.78;41.18
32237;BME280;18726;44.732;10.550;2023-07-20T13:03:59;100307.38;;;38.20;40.94
32237;BME280;18726;44.732;10.550;2023-07-20T13:07:02;100302.09;;;38.71;42.47
32237;BME280;18726;44.732;10.550;2023-07-20T13:10:07;100306.22;;;38.83;40.45
32237;BME280;18726;44.732;10.550;2023-07-20T13:13:11;100297.03;;;38.43;42.27
32237;BME280;18726;44.732;10.550;2023-07-20T13:16:15;100288.41;;;37.49;44.00
32237;BME280;18726;44.732;10.550;2023-07-20T13:19:20;100292.19;;;38.31;45.29
32237;BME280;18726;44.732;10.550;2023-07-20T13:22:24;100286.72;;;39.29;43.23
32237;BME280;18726;44.732;10.550;2023-07-20T13:25:28;100281.81;;;38.88;43.07
32237;BME280;18726;44.732;10.550;2023-07-20T13:28:32;100285.69;;;37.83;43.74
32237;BME280;18726;44.732;10.550;2023-07-20T13:31:35;100279.69;;;37.02;44.84
32237;BME280;18726;44.732;10.550;2023-07-20T13:34:39;100276.44;;;37.82;44.16
32237;BME280;18726;44.732;10.550;2023-07-20T13:37:43;100277.66;;;38.89;43.12
32237;BME280;18726;44.732;10.550;2023-07-20T13:40:46;100267.13;;;39.18;41.31
32237;BME280;18726;44.732;10.550;2023-07-20T13:43:49;100265.63;;;37.68;43.58
32237;BME280;18726;44.732;10.550;2023-07-20T13:46:53;100258.34;;;37.14;43.49
32237;BME280;18726;44.732;10.550;2023-07-20T13:49:56;100269.13;;;37.74;42.64
32237;BME280;18726;44.732;10.550;2023-07-20T13:52:59;100259.16;;;38.07;44.30
32237;BME280;18726;44.732;10.550;2023-07-20T13:56:06;100254.38;;;38.70;42.50
32237;BME280;18726;44.732;10.550;2023-07-20T13:59:10;100256.88;;;39.43;42.44
32237;BME280;18726;44.732;10.550;2023-07-20T14:02:14;100251.81;;;38.79;42.01
32237;BME280;18726;44.732;10.550;2023-07-20T14:05:19;100241.75;;;38.99;41.93
32237;BME280;18726;44.732;10.550;2023-07-20T14:08:22;100237.81;;;37.79;43.49
32237;BME280;18726;44.732;10.550;2023-07-20T14:11:26;100248.63;;;37.68;45.55
32237;BME280;18726;44.732;10.550;2023-07-20T14:14:30;100243.25;;;37.64;44.14
32237;BME280;18726;44.732;10.550;2023-07-20T14:17:34;100234.22;;;37.66;43.37
32237;BME280;18726;44.732;10.550;2023-07-20T14:20:38;100235.00;;;37.66;43.67
32237;BME280;18726;44.732;10.550;2023-07-20T14:23:41;100233.00;;;37.88;43.98
32237;BME280;18726;44.732;10.550;2023-07-20T14:26:45;100232.59;;;38.51;43.65
32237;BME280;18726;44.732;10.550;2023-07-20T14:29:51;100225.25;;;38.35;41.59
32237;BME280;18726;44.732;10.550;2023-07-20T14:32:56;100223.66;;;37.66;44.75
32237;BME280;18726;44.732;10.550;2023-07-20T14:36:00;100232.69;;;37.38;43.55
32237;BME280;18726;44.732;10.550;2023-07-20T14:39:04;100235.09;;;37.74;44.71
32237;BME280;18726;44.732;10.550;2023-07-20T14:42:09;100228.97;;;37.30;44.09
32237;BME280;18726;44.732;10.550;2023-07-20T14:45:12;100234.22;;;37.53;46.14
32237;BME280;18726;44.732;10.550;2023-07-20T14:48:16;100234.44;;;37.81;45.82
32237;BME280;18726;44.732;10.550;2023-07-20T14:51:19;100225.72;;;37.79;46.34
32237;BME280;18726;44.732;10.550;2023-07-20T14:54:23;100215.47;;;37.36;44.00
32237;BME280;18726;44.732;10.550;2023-07-20T14:57:26;100220.38;;;37.75;44.75
32237;BME280;18726;44.732;10.550;2023-07-20T15:00:30;100217.34;;;38.41;43.93
32237;BME280;18726;44.732;10.550;2023-07-20T15:03:34;100210.00;;;37.78;43.95
32237;BME280;18726;44.732;10.550;2023-07-20T15:06:37;100215.47;;;37.49;45.96
32237;BME280;18726;44.732;10.550;2023-07-20T15:09:41;100213.91;;;36.96;45.53
32237;BME280;18726;44.732;10.550;2023-07-20T15:12:45;100214.06;;;37.43;44.84
32237;BME280;18726;44.732;10.550;2023-07-20T15:15:49;100206.31;;;37.30;48.23
32237;BME280;18726;44.732;10.550;2023-07-20T15:18:53;100208.13;;;37.54;48.18
32237;BME280;18726;44.732;10.550;2023-07-20T15:21:56;100208.59;;;37.45;46.98
32237;BME280;18726;44.732;10.550;2023-07-20T15:25:03;100212.16;;;37.06;47.66
32237;BME280;18726;44.732;10.550;2023-07-20T15:28:07;100199.00;;;37.35;47.78
32237;BME280;18726;44.732;10.550;2023-07-20T15:31:11;100196.22;;;37.03;47.62
32237;BME280;18726;44.732;10.550;2023-07-20T15:34:14;100180.97;;;36.79;48.50
32237;BME280;18726;44.732;10.550;2023-07-20T15:37:18;100191.50;;;37.24;48.11
32237;BME280;18726;44.732;10.550;2023-07-20T15:40:22;100179.25;;;37.82;46.18
32237;BME280;18726;44.732;10.550;2023-07-20T15:43:27;100181.91;;;37.54;47.07
32237;BME280;18726;44.732;10.550;2023-07-20T15:49:43;100165.56;;;37.20;48.88
32237;BME280;18726;44.732;10.550;2023-07-20T15:52:47;100160.09;;;37.35;48.33
32237;BME280;18726;44.732;10.550;2023-07-20T15:55:54;100163.16;;;37.37;48.43
32237;BME280;18726;44.732;10.550;2023-07-20T15:58:59;100157.03;;;37.73;47.06
32237;BME280;18726;44.732;10.550;2023-07-20T16:02:03;100162.59;;;37.52;47.53
32237;BME280;18726;44.732;10.550;2023-07-20T16:05:08;100151.16;;;37.18;50.10